x

8419317 - Wells, Me (welm1) Weather Station

9:18am - Tue 24th May 2016 All times are EDT. -4 hours from GMT.

  • Wind
    13mph, 15mph gusts
  • Sea Temp 50°f
  • 空気 Temp 54°f
  • Sea Pressure 1013.4mb
  • 8419317 - Wells, Me
  • 8419317 - Wells, Me

More Historic Weather Station data

Upgrade to MSW Pro to gain access to the past 30 days of data for over 8000 Wavebouys and Weather Stations around the globe.

Join Pro

Comparision Forecast

View Surf forecast
   
Tue 05/24 9:18am 13 15 mph 1013.4mb 50f 54f
9:12am 13 16 mph 1013.6mb 50f 54f
9:06am 14 16 mph 1013.4mb 50f 53f
9:00am 13 18 mph 1013.5mb 50f 54f
8:54am 14 17 mph 1013.5mb 50f 54f
8:48am 11 16 mph 1013.3mb 50f 54f
8:42am 10 17 mph 1013.3mb 50f 55f
8:36am 16 20 mph 1013.2mb 50f 55f
8:30am 10 15 mph 1013.1mb 49f 55f
8:24am 13 17 mph 1013.1mb 49f 55f
8:18am 15 17 mph 1013.2mb 49f 55f
8:12am 13 18 mph 1013.4mb 49f 55f
8:06am 8 20 mph 1013.5mb 49f 55f
8:00am 11 18 mph 1013.3mb 49f 55f
7:54am 16 23 mph 1013.1mb 49f 54f
7:48am 13 18 mph 1013.2mb 49f 54f
7:42am 14 21 mph 1013.2mb 49f 54f
7:36am 15 21 mph 1013.2mb 49f 54f
7:30am 11 14 mph 1013.4mb 49f 53f
7:24am 10 13 mph 1013.3mb 49f 53f
7:18am 9 13 mph 1013.5mb 49f 53f
7:12am 9 14 mph 1013.6mb 49f 53f
7:06am 11 14 mph 1013.5mb 49f 53f
7:00am 9 13 mph 1013.5mb 49f 53f
6:54am 8 13 mph 1013.6mb 49f 53f
6:48am 8 11 mph 1013.6mb 49f 53f
6:42am 7 9 mph 1013.6mb 49f 53f
6:36am 7 9 mph 1013.6mb 49f 53f
6:30am 7 11 mph 1013.6mb 49f 53f
6:24am 8 13 mph 1013.5mb 49f 53f
6:18am 6 11 mph 1013.2mb 49f 53f
6:12am 9 14 mph 1013.2mb 49f 53f
6:06am 11 14 mph 1013.2mb 49f 53f
6:00am 9 13 mph 1013.3mb 48f 53f
5:54am 10 14 mph 1013.6mb 48f 53f
5:48am 13 14 mph 1013.6mb 48f 53f
5:42am 11 14 mph 1013.3mb 48f 53f
5:36am 10 13 mph 1013.3mb 48f 53f
5:30am 10 13 mph 1013.2mb 48f 54f
5:24am 9 13 mph 1012.9mb 47f 54f
5:18am 8 14 mph 1012.6mb 47f 54f
5:12am 13 20 mph 1012.7mb 47f 54f
5:06am 13 17 mph 1012.8mb 47f 54f
5:00am 7 9 mph 1013mb 47f 53f
4:54am 6 9 mph 1013mb 48f 53f
4:48am 7 9 mph 1012.9mb 48f 53f
4:42am 7 8 mph 1012.9mb 48f 54f
4:36am 6 8 mph 1013mb 48f 55f
4:30am 6 7 mph 1013mb 48f 55f
4:24am 6 7 mph 1013mb 47f 55f
4:18am 6 7 mph 1012.8mb 47f 54f
4:12am 6 8 mph 1012.6mb 47f 56f
4:06am 7 10 mph 1012.4mb 47f 56f
4:00am 9 13 mph 1012.3mb 47f 56f
3:54am 11 16 mph 1012.2mb 47f 56f
3:48am 11 15 mph 1012.1mb 47f 56f
3:42am 11 16 mph 1012mb 47f 56f
3:36am 13 15 mph 1012mb 47f 56f
3:30am 13 15 mph 1012mb 47f 56f
3:24am 13 15 mph 1012mb 47f 56f
3:18am 11 15 mph 1012.1mb 47f 56f
3:12am 11 15 mph 1012.2mb 47f 56f
3:06am 11 14 mph 1012.4mb 47f 56f
3:00am 13 15 mph 1012.4mb 47f 56f
2:54am 13 15 mph 1012.4mb 47f 56f
2:48am 13 16 mph 1012.6mb 47f 56f
2:42am 11 13 mph 1012.7mb 47f 56f
2:36am 10 11 mph 1012.9mb 46f 55f
2:30am 9 10 mph 1012.9mb 46f 55f
2:24am 9 10 mph 1013mb 46f 55f
2:18am 8 9 mph 1013mb 46f 55f
2:12am 8 9 mph 1013.1mb 46f 55f
2:06am 7 8 mph 1013.1mb 46f 55f
2:00am 6 7 mph 1013.2mb 46f 55f
1:54am 6
mph
1013.2mb 46f 55f
1:48am  -  mph 1013.3mb 46f 54f
1:42am  -  mph 1013.4mb 46f 54f
1:36am  -  mph 1013.5mb 46f 54f
1:30am 3 5 mph 1013.5mb 46f 55f
1:24am 5
mph
1013.4mb 46f 55f
1:18am 5
mph
1013.4mb 46f 55f
1:12am 3 5 mph 1013.3mb 46f 55f
1:06am 3 5 mph 1013.3mb 46f 55f
1:00am 3 6 mph 1013.4mb 46f 55f
12:54am 5 7 mph 1013.3mb 46f 55f
12:48am 6 7 mph 1013.3mb 46f 55f
12:42am 6 7 mph 1013.4mb 46f 55f
12:36am 6 7 mph 1013.4mb 46f 55f
12:30am 6 7 mph 1013.4mb 46f 55f
12:24am 6 8 mph 1013.5mb 46f 55f
12:18am 7 8 mph 1013.4mb 46f 55f
12:12am 7 8 mph 1013.4mb 46f 55f
12:06am 5
mph
1013.4mb 46f 55f
12:00am 3 5 mph 1013.5mb 46f 54f
Mon 05/23 11:54pm 5 6 mph 1013.7mb 47f 54f
11:48pm 6 8 mph 1013.7mb 47f 54f
11:42pm 6 7 mph 1013.6mb 47f 54f
11:36pm 3 5 mph 1013.6mb 47f 54f
11:30pm 3 6 mph 1013.6mb 47f 54f
11:24pm 5 6 mph 1013.7mb 47f 54f
11:18pm  -  mph 1013.6mb 47f 54f
11:12pm  -  mph 1013.5mb 47f 54f
11:06pm  -  mph 1013.5mb 47f 54f
11:00pm  -  mph - 47f -
10:54pm  -  mph - 47f -
10:48pm  -  mph 1013.5mb 47f -
10:42pm  -  mph 1013.5mb 47f -
10:36pm  -  mph 1013.4mb 47f -
10:30pm 3
mph
1013.5mb 47f 54f
10:24pm 3
mph
1013.6mb 47f 54f
10:18pm 2 5 mph 1013.5mb 47f -
10:12pm 3 6 mph 1013.5mb 47f -
10:06pm 2 3 mph 1013.4mb 47f -
10:00pm 2
mph
1013.5mb 47f 54f
9:54pm 2
mph
1013.6mb 47f 54f
9:48pm  -  1 mph - 48f -
9:42pm 2 3 mph - 49f -
9:36pm 2 3 mph - 49f -
9:30pm  -  mph - 51f -
9:24pm  -  mph - 54f -
9:18pm  -  mph - 54f -
9:12pm  -  mph - 54f -
9:06pm  -  mph - 54f -
9:00pm  -  mph - 54f 54f
8:54pm  -  mph - 54f 54f
8:48pm 5 9 mph 1012.6mb - -
8:42pm 7 11 mph 1012.6mb - -
8:36pm 8 10 mph 1012.6mb - -
8:30pm  -  mph 1012.4mb 54f -
8:24pm  -  mph 1012.2mb 54f -
8:18pm 6 8 mph - 54f -
8:12pm 3 7 mph - 54f -
8:06pm 7 11 mph - 54f -
8:00pm 8 11 mph 1011.6mb 54f 56f
7:54pm 10 14 mph 1011.6mb 54f 56f
7:48pm  -  mph 1011.6mb - -
7:42pm  -  mph 1011.6mb - -
7:36pm  -  mph 1011.4mb - -
7:30pm  -  mph - 54f -
7:24pm  -  mph - 54f -
7:18pm  -  mph 1011.5mb 54f -
7:12pm  -  mph 1011.5mb 54f -
7:06pm  -  mph 1011.6mb 54f -
7:00pm  -  mph 1011.7mb 54f -
6:54pm  -  mph 1011.6mb 54f -
6:48pm  -  mph - 53f -
6:42pm  -  mph - 53f -
6:36pm  -  mph - 53f -
6:30pm 11 14 mph 1011.4mb 53f 62f
6:24pm 10 13 mph 1011.3mb 53f 63f
6:18pm  -  mph 1011.3mb 53f -
6:12pm  -  mph 1011.3mb 53f -
6:06pm  -  mph 1011.3mb 52f -
6:00pm  -  mph 1011.2mb 52f 63f
5:54pm  -  mph 1011.3mb 51f 63f
5:48pm  -  mph 1011.2mb - -
5:42pm  -  mph 1011.1mb - -
5:36pm  -  mph 1011mb - -
5:30pm 11 14 mph 1011mb 50f 63f
5:24pm 13 16 mph 1011.1mb 50f 64f
5:18pm 15 17 mph 1011mb 50f 64f
5:12pm 15 17 mph 1011mb 50f 64f
5:06pm 14 16 mph 1011mb 51f 63f
5:00pm 13 15 mph 1010.9mb 52f 65f
4:54pm 13 14 mph 1010.9mb 52f 64f
4:48pm 13 14 mph 1010.9mb 52f 64f
4:42pm 11 14 mph 1011mb 52f 65f
4:36pm 11 14 mph 1011mb 51f 65f
4:30pm 11 13 mph 1011mb 51f 65f
4:24pm 11 13 mph 1011mb 51f 65f
4:18pm 10 14 mph 1011mb 51f 65f
4:12pm 11 13 mph 1011.1mb 51f 67f
4:06pm 10 11 mph 1011.1mb 50f 66f
4:00pm 10 11 mph 1011.1mb 50f 66f
3:54pm 9 10 mph 1011.1mb 50f 65f
3:48pm 9 10 mph 1011.1mb 50f 65f
3:42pm 9 11 mph 1011.1mb 49f 65f
3:36pm 10 13 mph 1011.2mb 49f 65f
3:30pm 11 13 mph 1011.2mb 49f 65f
3:24pm 11 13 mph 1011.2mb 49f 65f
3:18pm 11
mph
1011.1mb 49f 65f
3:12pm 10 11 mph 1011.1mb 49f 64f
3:06pm 11 13 mph 1011.2mb 48f 64f
3:00pm 10 11 mph 1011.3mb 48f 64f
2:54pm 10 11 mph 1011.3mb 48f 65f
2:48pm 10 11 mph 1011.4mb 48f 65f
2:42pm 10 11 mph 1011.4mb 47f 66f
2:36pm 8 9 mph 1011.4mb 47f 66f
2:30pm 7 9 mph 1011.4mb 47f 65f
2:24pm 8 9 mph 1011.5mb 47f 65f
2:18pm 8 9 mph 1011.4mb 47f 66f
2:12pm 8
mph
1011.4mb 47f 66f
2:06pm 7 8 mph 1011.5mb 47f 66f
2:00pm 6 8 mph 1011.5mb 47f -
1:54pm 7 8 mph 1011.5mb 47f -
1:48pm  -  mph - - 66f
1:42pm  -  mph - - 66f
1:36pm  -  mph - - 65f
1:30pm 6 8 mph 1011.6mb 47f 64f
1:24pm 7 9 mph 1011.8mb 47f 63f
1:18pm 9 10 mph 1011.8mb 47f 63f
1:12pm 9 10 mph 1011.8mb 47f 64f
1:06pm 9 11 mph 1012mb 47f 62f
1:00pm 8 9 mph 1012mb 46f 62f
12:54pm 7 10 mph 1012mb 46f 61f
12:48pm 9 11 mph 1011.9mb 46f 61f
12:42pm 10 13 mph 1011.9mb 46f 62f
12:36pm 10 11 mph 1012.1mb 46f 62f
12:30pm 9 10 mph 1012.1mb 46f 62f
12:24pm 9 10 mph 1012mb 46f 62f
12:18pm 8 9 mph 1011.9mb 46f 61f
12:12pm 8 9 mph 1011.9mb 46f 62f
12:06pm 9
mph
1011.9mb 46f 63f
12:00pm 8
mph
1011.9mb 46f 62f
11:54am 8 9 mph 1012.1mb 46f 61f
11:48am 7 8 mph 1012.2mb 46f 62f
11:42am 8 10 mph 1012.2mb 46f 62f
11:36am 9 11 mph 1012.3mb 46f 62f
11:30am 10 11 mph 1012.3mb 46f 64f
11:24am 7 8 mph 1012.2mb 46f 64f
11:18am 3 6 mph 1012.2mb 46f 64f
11:12am 6
mph
1012.2mb 46f 62f
11:06am 6 7 mph 1012.3mb 46f 63f
11:00am 6 9 mph 1012.3mb 46f 62f
10:54am 9 10 mph 1012.4mb 46f 61f
10:48am 9 13 mph 1012.4mb 46f 61f
10:42am 8 9 mph 1012.4mb 46f 61f
10:36am 8 9 mph 1012.4mb 46f 62f
10:30am 8 10 mph 1012.3mb 46f 62f
10:24am 8 9 mph 1012.2mb 46f 64f
10:18am 7 9 mph 1012.1mb 46f 65f
10:12am 2 6 mph 1012.1mb 46f 66f
10:06am 6 9 mph 1012.1mb 47f 66f
10:00am 6 10 mph 1012.2mb 47f 66f
9:54am 7 11 mph 1012.1mb 47f 69f
9:48am 9 13 mph 1012mb 47f 69f
9:42am 9 11 mph 1012.1mb 48f 68f
9:36am 10 13 mph 1012.2mb 49f 68f
9:30am 7 11 mph 1012.2mb 49f 67f
9:24am 9 13 mph 1012.3mb 49f 67f
9:18am 8 13 mph 1012.4mb 49f 67f
9:12am 8 11 mph 1012.4mb 49f 67f
9:06am 6 8 mph 1012.4mb 49f 66f
9:00am 7 10 mph 1012.4mb 49f 66f
8:54am 6 9 mph 1012.4mb 49f 66f
8:48am 7 9 mph 1012.4mb 49f 65f
8:42am 8 10 mph 1012.4mb 49f 65f
8:36am 7 9 mph 1012.5mb 49f 64f
8:30am 8 9 mph 1012.5mb 49f 64f
8:24am 7 9 mph 1012.6mb 49f 63f
8:18am 8 9 mph 1012.6mb 49f 63f
8:12am 7 8 mph 1012.6mb 49f 62f
8:06am 7 9 mph 1012.6mb 49f 62f
8:00am 7 8 mph 1012.6mb 48f 61f
7:54am 8 10 mph 1012.6mb 48f 61f
7:48am 10 11 mph 1012.5mb 48f 61f
7:42am 2 5 mph 1012.5mb 48f 61f
7:36am  -  1 mph 1012.5mb 48f 61f
7:30am 1 5 mph 1012.5mb 48f 60f
7:24am 3 6 mph 1012.5mb 48f 59f
7:18am 5 6 mph 1012.4mb 48f 58f
7:12am 5 6 mph 1012.3mb 48f 57f
7:06am 5 6 mph 1012.4mb 48f 57f
7:00am 5 6 mph 1012.4mb 48f 56f
6:54am 2 5 mph 1012.4mb 48f 55f
6:48am 3 5 mph 1012.4mb 48f 55f
6:42am 2 3 mph 1012.4mb 48f 54f
6:36am 2 3 mph 1012.5mb 48f 54f
6:30am 2 5 mph 1012.5mb 48f 54f
6:24am 2 3 mph 1012.5mb 48f 53f
6:18am 1 2 mph 1012.5mb 48f 53f
6:12am 2 3 mph 1012.4mb 48f 52f
6:06am 2
mph
1012.3mb 48f 52f
6:00am 2 3 mph 1012.2mb 48f 51f
5:54am 2 3 mph 1012.1mb 48f 51f
5:48am 2 3 mph 1012.1mb 48f 51f
5:42am 2 3 mph 1012.1mb 48f 50f
5:36am 3
mph
1012mb 48f 50f
5:30am 3
mph
1011.9mb 47f 50f
5:24am 3
mph
1011.8mb 47f 50f
5:18am 2
mph
1011.7mb 47f 49f
5:12am  -  1 mph 1011.7mb 47f 49f
5:06am  -  1 mph 1011.6mb 47f 49f
5:00am  -  1 mph 1011.4mb 47f 49f
4:54am  -  1 mph 1011.5mb 47f 49f
4:48am  -  1 mph 1011.3mb 47f 49f
4:42am  -  1 mph 1011.2mb 47f 49f
4:36am  -  1 mph 1011.2mb 47f 49f
4:30am  -  2 mph 1011.2mb 47f 49f
4:24am 2
mph
1011.1mb 47f 48f
4:18am 2 3 mph 1011.1mb 47f 49f
4:12am 1
mph
1011.1mb 47f 49f
4:06am 1 2 mph 1011.1mb 47f 50f
4:00am 1 2 mph 1011mb 47f 50f
3:54am 1 2 mph 1011mb 47f 51f
3:48am 1 2 mph 1011mb 47f 51f
3:42am  -  2 mph 1011.1mb 47f 51f
3:36am 2 5 mph 1011.1mb 47f 51f
3:30am  -  1 mph 1011.1mb 47f 51f
3:24am  -  2 mph 1011.1mb 47f 51f
3:18am  -  1 mph 1011.2mb 47f 51f
3:12am  -  3 mph 1011.2mb 47f 51f
3:06am 2 3 mph 1011.2mb 47f 51f
3:00am 1 3 mph 1011.2mb 46f 52f
2:54am 1 2 mph 1011.3mb 46f 52f
2:48am  -  1 mph 1011.4mb 46f 51f
2:42am 1 2 mph 1011.4mb 46f 52f
2:36am 2
mph
1011.3mb 46f 51f
2:30am  -  2 mph 1011.3mb 46f 51f
2:24am 1 3 mph 1011.2mb 46f 51f
2:18am  -  3 mph 1011.2mb 46f 51f
2:12am  -  3 mph 1011.3mb 46f 51f
2:06am 2 5 mph 1011.3mb 46f 51f
2:00am 2 3 mph 1011.5mb 46f 50f
1:54am 2 3 mph 1011.5mb 46f 49f
1:48am  -  mph 1011.6mb 46f 50f
1:42am  -  mph 1011.6mb 46f 51f
1:36am  -  mph 1011.6mb 46f 51f
1:30am 2
mph
1011.5mb 46f 51f
1:24am 1 2 mph 1011.5mb 46f 51f
1:18am 2 3 mph 1011.6mb 46f 51f
1:12am 2 3 mph 1011.6mb 46f 51f
1:06am  -  1 mph 1011.7mb 46f 51f
1:00am 1 3 mph 1011.8mb 46f 51f
12:54am 2 3 mph 1011.8mb 46f 51f
12:48am 2
mph
1011.8mb 46f 51f
12:42am 2 5 mph 1011.8mb 46f 52f
12:36am 3
mph
1011.7mb 46f 52f
12:30am 2 3 mph 1011.6mb 46f 52f
12:24am 1 3 mph 1011.6mb 46f 52f
12:18am 2 3 mph 1011.6mb 46f 52f
12:12am 2 3 mph 1011.7mb 46f 52f
12:06am 3
mph
1011.7mb 46f 52f
12:00am 1 2 mph 1011.7mb 46f 52f
Sun 05/22 11:54pm 2 3 mph 1011.6mb 46f 52f
11:48pm 5
mph
1011.5mb 46f 52f
11:42pm 5 6 mph 1011.5mb 46f 52f
11:36pm 3 5 mph 1011.6mb 46f 53f
11:30pm 3 6 mph 1011.7mb 46f 53f
11:24pm 2 3 mph 1011.7mb 46f 52f
11:18pm  -  mph 1011.7mb 46f 51f
11:12pm  -  mph 1011.6mb 46f 52f
11:06pm  -  mph 1011.6mb 46f 51f
11:00pm  -  mph 1011.7mb 46f -
10:54pm  -  mph 1011.6mb 46f -
10:48pm 3
mph
1011.6mb 46f -
10:42pm 2 5 mph 1011.6mb 46f -
10:36pm 5 7 mph 1011.6mb 46f -
10:30pm 7
mph
1011.4mb 46f -
10:24pm 2 3 mph 1011.4mb 46f -
10:18pm  -  mph 1011.3mb 46f -
10:12pm  -  mph 1011.4mb 46f -
10:06pm  -  mph 1011.4mb 46f -
10:00pm  -  2 mph 1011.4mb 47f 51f
9:54pm  -  2 mph 1011.4mb 47f 51f
9:48pm 3
mph
1011.4mb - -
9:42pm 3
mph
1011.3mb - -
9:36pm 2
mph
1011.2mb - -
9:30pm  -  mph 1011.1mb 47f 52f
9:24pm  -  1 mph 1011mb 48f 53f
9:18pm  -  mph 1010.9mb 49f 53f
9:12pm  -  mph 1010.8mb 50f 53f
9:06pm  -  mph 1010.8mb 50f 53f
9:00pm  -  2 mph 1010.7mb 50f 53f
8:54pm 1 2 mph 1010.6mb 51f 53f
8:48pm 2
mph
1010.5mb 51f -
8:42pm 1 2 mph 1010.5mb 51f -
8:36pm 2
mph
1010.5mb 51f -
8:30pm  -  mph 1010.6mb 51f -
8:24pm  -  mph 1010.5mb 51f -
8:18pm 2 3 mph - 51f -
8:12pm 2 3 mph - 50f -
8:06pm 2 5 mph - 50f -
8:00pm  -  mph 1010.6mb 50f -
7:54pm  -  mph 1010.6mb 50f -
7:48pm  -  mph 1010.7mb 50f -
7:42pm  -  mph 1010.7mb 50f -
7:36pm  -  mph 1010.6mb 50f -
7:30pm  -  mph 1010.6mb 50f -
7:24pm  -  mph 1010.5mb 50f -
7:18pm  -  mph 1010.4mb 50f 57f
7:12pm  -  mph 1010.2mb 50f 57f
7:06pm  -  mph 1010.1mb 50f 57f
7:00pm  -  mph - 50f -
6:54pm  -  mph - 50f -
6:48pm 6
mph
- 50f -
6:42pm 5 6 mph - 50f -
6:36pm 6 7 mph - 50f -
6:30pm  -  mph - 50f -
6:24pm  -  mph - 50f -
6:18pm 6 7 mph - 50f -
6:12pm 3 7 mph - 50f -
6:06pm 5 6 mph - 50f -
6:00pm  -  mph - 50f -
5:54pm  -  mph - 50f -
5:48pm  -  mph 1009.7mb 50f 58f
5:42pm  -  mph 1009.7mb 49f 59f
5:36pm  -  mph 1009.6mb 49f 59f
5:30pm 5 8 mph 1009.7mb 49f 58f
5:24pm 6 7 mph 1009.6mb 49f 58f
5:18pm 7 9 mph 1009.6mb 49f 58f
5:12pm 7 8 mph 1009.6mb 49f 58f
5:06pm 7 8 mph 1009.5mb 48f 59f
5:00pm 6 7 mph 1009.4mb 48f 60f
4:54pm 5 7 mph 1009.3mb 48f 61f
4:48pm 5 6 mph 1009.3mb 48f 60f
4:42pm 6 7 mph 1009.3mb 48f 60f
4:36pm 5 6 mph 1009.4mb 48f 58f
4:30pm 6
mph
1009.4mb 48f 58f
4:24pm 5 6 mph 1009.4mb 47f 58f
4:18pm 3 6 mph 1009.4mb 47f 58f
4:12pm 5 6 mph 1009.4mb 47f 57f
4:06pm 5 7 mph 1009.5mb 47f 57f
4:00pm 6
mph
1009.5mb 47f 56f
3:54pm 6
mph
1009.7mb 47f 56f
3:48pm 6 7 mph 1009.7mb 47f 56f
3:42pm 5 6 mph 1009.8mb 47f 56f
3:36pm 3 6 mph 1009.9mb 47f 56f
3:30pm 1 3 mph 1009.9mb 47f 57f
3:24pm 3 7 mph 1010mb 47f 57f
3:18pm 5 7 mph 1010.1mb 47f 56f
3:12pm 5 7 mph 1010mb 46f 56f
3:06pm 5 6 mph 1010.2mb 46f 56f
3:00pm 3 6 mph 1010.2mb 46f 56f
2:54pm 5 7 mph 1010.1mb 46f 56f
2:48pm 3 6 mph 1010.1mb 46f 55f
2:42pm 5 6 mph 1010.1mb 46f 55f
2:36pm 5 6 mph 1010.2mb 46f 55f
2:30pm 2 3 mph 1010.2mb 46f 55f
2:24pm 2 5 mph 1010.3mb 46f 56f
2:18pm 2 3 mph 1010.4mb 46f 56f
2:12pm 1 3 mph 1010.4mb 46f 55f
2:06pm 2 3 mph 1010.4mb 46f 54f
2:00pm 2 3 mph 1010.5mb 46f 54f
1:54pm 2 3 mph 1010.5mb 46f 54f
1:48pm 3 5 mph 1010.6mb 45f 53f
1:42pm 3 6 mph 1010.6mb 45f 53f
1:36pm 3 6 mph 1010.5mb 45f 53f
1:30pm 3 5 mph 1010.5mb 45f 53f
1:24pm 3 5 mph 1010.5mb 45f 53f
1:18pm 3 5 mph 1010.6mb 45f 53f
1:12pm 3 6 mph 1010.6mb 45f 53f
1:06pm 5 7 mph 1010.7mb 45f 52f
1:00pm 5 7 mph 1010.7mb 45f 52f
12:54pm 7
mph
1010.7mb 45f 52f
12:48pm 5 6 mph 1010.7mb 45f 53f
12:42pm 5 7 mph 1010.6mb 45f 53f
12:36pm 3 6 mph 1010.6mb 45f 53f
12:30pm 5 7 mph 1010.6mb 45f 53f
12:24pm 5 6 mph 1010.5mb 45f 53f
12:18pm 5 6 mph 1010.5mb 45f 53f
12:12pm 5 6 mph 1010.6mb 45f 53f
12:06pm 5 6 mph 1010.7mb 45f 54f
12:00pm 3 5 mph 1010.6mb 45f 54f
11:54am 3 5 mph 1010.7mb 45f 54f
11:48am 3 5 mph 1010.7mb 45f 55f
11:42am 3 5 mph 1010.7mb 45f 56f
11:36am 1 3 mph 1010.7mb 45f 56f
11:30am 2 3 mph 1010.7mb 45f 56f
11:24am 3
mph
1010.8mb 45f 55f
11:18am 2 3 mph 1010.7mb 45f 55f
11:12am 3 5 mph 1010.8mb 45f 55f
11:06am 3 6 mph 1010.7mb 45f 54f
11:00am 5 6 mph 1010.7mb 45f 54f
10:54am 5 6 mph 1010.6mb 45f 54f
10:48am 5 6 mph 1010.6mb 45f 55f
10:42am 5 6 mph 1010.5mb 45f 55f
10:36am 3 5 mph 1010.4mb 45f 55f
10:30am 2 5 mph 1010.5mb 45f 56f
10:24am 3 6 mph 1010.5mb 45f 55f
10:18am 3 5 mph 1010.5mb 45f 55f
10:12am 3 5 mph 1010.4mb 45f 55f
10:06am 3
mph
1010.4mb 45f 55f
10:00am 2 3 mph 1010.5mb 45f 58f
9:54am 2 3 mph 1010.5mb 45f 59f
9:48am 2 3 mph 1010.5mb 45f 58f
9:42am  -  2 mph 1010.4mb 45f 56f
9:36am 2 3 mph 1010.4mb 45f 55f
9:30am 2 3 mph 1010.4mb 45f 54f
9:24am  -  2 mph 1010.4mb 46f 56f
9:18am 1 2 mph 1010.4mb 47f 55f
9:12am  -  2 mph 1010.4mb 47f 55f
9:06am 1 3 mph 1010.4mb 48f 54f
9:00am 2 3 mph 1010.3mb 48f 53f
8:54am 1 3 mph 1010.4mb 48f 53f
8:48am 3 5 mph 1010.3mb 48f 53f
8:42am 3 5 mph 1010.3mb 48f 52f
8:36am 5 6 mph 1010.3mb 48f 52f
8:30am 2 5 mph 1010.3mb 48f 53f
8:24am 5
mph
1010.2mb 48f 55f
8:18am 3 6 mph 1010.1mb 48f 56f
8:12am 5 6 mph 1010.2mb 48f 56f
8:06am 5 6 mph 1010.1mb 48f 55f
8:00am 3 6 mph 1010.2mb 48f 54f
7:54am 5 6 mph 1010.1mb 48f 54f
7:48am 3 5 mph 1010.1mb 48f 54f
7:42am 2 3 mph 1010.1mb 48f 53f
7:36am 3
mph
1010.1mb 48f 53f
7:30am 2 3 mph 1010mb 47f 52f
7:24am 3 5 mph 1010mb 47f 52f
7:18am 2 3 mph 1009.9mb 47f 52f
7:12am 3
mph
1009.9mb 47f 52f
7:06am 2 3 mph 1009.9mb 47f 52f
7:00am 3 6 mph 1009.9mb 47f 52f
6:54am 5 6 mph 1009.8mb 47f 52f
6:48am 2 3 mph 1009.8mb 47f 51f
6:42am 3 7 mph 1009.9mb 47f 51f
6:36am 6 7 mph 1009.8mb 47f 52f
6:30am 6 7 mph 1009.9mb 47f 52f
6:24am 3 6 mph 1009.8mb 47f 52f
6:18am 6 8 mph 1009.7mb 47f 51f
6:12am 6 10 mph 1009.7mb 47f 51f
6:06am 2 3 mph 1009.7mb 47f 50f
6:00am 2 3 mph 1009.5mb 47f 50f
5:54am 1
mph
1009.6mb 47f 49f
5:48am  -  2 mph 1009.6mb 47f 50f
5:42am 3
mph
1009.6mb 47f 49f
5:36am 2
mph
1009.6mb 47f 49f
5:30am 1
mph
1009.5mb 47f 50f
5:24am  -  1 mph 1009.5mb 47f 50f
5:18am 1
mph
1009.4mb 46f 50f
5:12am  -  2 mph 1009.4mb 46f 50f
5:06am 1 2 mph 1009.5mb 47f 50f
5:00am 2
mph
1009.5mb 47f 50f
4:54am 1 2 mph 1009.5mb 47f 50f
4:48am 2 3 mph 1009.6mb 46f 50f
4:42am 2 3 mph 1009.6mb 46f 51f
4:36am 2 3 mph 1009.5mb 46f 51f
4:30am 2 3 mph 1009.6mb 46f 51f
4:24am 2
mph
1009.7mb 46f 51f
4:18am  -  1 mph 1009.7mb 46f 52f
4:12am 1 3 mph 1009.7mb 46f 52f
4:06am 3
mph
1009.8mb 46f 52f
4:00am 1 6 mph 1009.9mb 46f 52f
3:54am 6 9 mph 1010.1mb 45f 52f
3:48am 8 9 mph 1010.3mb 45f 52f
3:42am 3
mph
1010.3mb 45f 51f
3:36am  -  1 mph 1010.3mb 45f 51f
3:30am  -  1 mph 1010.2mb 45f 51f
3:24am 1 2 mph 1010.3mb 45f 51f
3:18am 2
mph
1010.3mb 45f 51f
3:12am 2 6 mph 1010.4mb 45f 51f
3:06am 5 7 mph 1010.5mb 45f 51f
3:00am 3
mph
1010.6mb 45f 51f
2:54am 3 5 mph 1010.5mb 45f 51f
2:48am 2
mph
1010.4mb 45f 51f
2:42am 2
mph
1010.5mb 45f 51f
2:36am 2
mph
1010.5mb 45f 51f
2:30am 2
mph
1010.5mb 45f 51f
2:24am 2
mph
1010.6mb 45f 51f
2:18am 1 2 mph 1010.7mb 45f 51f
2:12am 2 3 mph 1010.9mb 44f 51f
2:06am 2 3 mph 1011mb 44f 52f
2:00am  -  2 mph 1011.1mb 44f 52f
1:54am 2 3 mph 1011.1mb 44f 52f
1:48am  -  mph 1011.2mb 44f 51f
1:42am  -  mph 1011.4mb 44f 51f
1:36am  -  mph 1011.4mb 44f 52f
1:30am 5 6 mph 1011.4mb 44f 51f
1:24am 6 9 mph 1011.5mb 44f 51f
1:18am 7 9 mph 1011.6mb 44f 51f
1:12am 6 8 mph 1011.6mb 44f 51f
1:06am 7 8 mph 1011.5mb 44f 51f
1:00am 7 9 mph 1011.5mb 44f 51f
12:54am 7 8 mph 1011.3mb 44f 52f
12:48am 6
mph
1011.4mb 44f 53f
12:42am 2 3 mph 1011.5mb 44f 54f
12:36am 2 3 mph 1011.6mb 44f 54f
12:30am 3
mph
1011.7mb 44f 54f
12:24am 3
mph
1011.9mb 44f 54f
12:18am 2 5 mph 1011.9mb 44f 55f
12:12am 2 5 mph 1012mb 44f 54f
12:06am 5 6 mph 1012.1mb 44f 54f
12:00am 3 7 mph 1012.2mb 44f 53f
Sat 05/21 11:54pm 7 10 mph 1012.2mb 44f 52f
11:48pm  -  mph 1012.2mb 44f 53f
11:42pm  -  mph 1012.3mb 44f 53f
11:36pm  -  mph 1012.3mb 44f 53f
11:30pm 8 9 mph 1012.3mb 44f 53f
11:24pm 10 11 mph 1012.3mb 44f 54f
11:18pm  -  mph 1012.3mb 44f 53f
11:12pm  -  mph 1012.4mb 44f 53f
11:06pm  -  mph 1012.5mb 44f 53f
11:00pm  -  mph 1012.6mb 44f -
10:54pm  -  mph 1012.7mb 44f -
10:48pm  -  mph 1012.9mb - -
10:42pm  -  mph 1013mb - -
10:36pm  -  mph 1013mb - -
10:30pm  -  mph - 44f -
10:24pm  -  mph - 44f -
10:18pm  -  mph 1013.1mb 44f -
10:12pm  -  mph 1013.1mb 44f -
10:06pm  -  mph 1013.1mb 44f -
10:00pm  -  mph 1013.1mb 44f 54f
9:54pm  -  mph 1013.1mb 44f 55f
9:48pm  -  mph 1013.1mb - -
9:42pm  -  mph 1013.2mb - -
9:36pm  -  mph 1013.2mb - -
9:30pm  -  mph 1013.1mb - -
9:24pm  -  mph 1013.1mb - -
9:18pm  -  mph 1013.2mb 45f 55f
9:12pm  -  mph 1013.2mb 45f 58f
9:06pm  -  mph 1013.1mb 46f 59f
9:00pm  -  mph 1013.2mb 46f -
8:54pm  -  mph 1013.2mb 46f -
8:48pm  -  mph 1013.1mb - -
8:42pm  -  mph 1013.1mb - -
8:36pm  -  mph 1013.1mb - -
8:30pm 11 13 mph 1013.1mb 50f -
8:24pm 9 11 mph 1013.2mb 50f -
8:18pm  -  mph 1013.2mb 51f 58f
8:12pm  -  mph 1013.2mb 52f 58f
8:06pm  -  mph 1013.1mb 53f 59f
8:00pm  -  mph - 53f -
7:54pm  -  mph - 53f -
7:48pm  -  mph 1013.2mb - -
7:42pm  -  mph 1013.1mb - -
7:36pm  -  mph 1013.2mb - -
7:30pm 9 11 mph 1013.2mb 53f 60f
7:24pm 10 13 mph 1013.3mb 53f 60f
7:18pm  -  mph 1013.3mb 53f -
7:12pm  -  mph 1013.4mb 53f -
7:06pm  -  mph 1013.5mb 53f -
7:00pm  -  mph - 53f 60f
6:54pm  -  mph - 53f 58f
6:48pm  -  mph 1013.7mb 53f -
6:42pm  -  mph 1013.7mb 53f -
6:36pm  -  mph 1013.8mb 53f -
6:30pm  -  mph 1013.8mb 53f -
6:24pm  -  mph 1013.8mb 53f -
6:18pm  -  mph 1013.8mb 53f 57f
6:12pm  -  mph 1013.8mb 53f 57f
6:06pm  -  mph 1013.9mb 53f 56f
6:00pm  -  mph 1013.9mb 52f -
5:54pm  -  mph 1014mb 52f -
5:48pm  -  mph 1014.1mb - -
5:42pm  -  mph 1014.1mb - -
5:36pm  -  mph 1014.1mb - -
5:30pm 20 22 mph 1014.2mb 52f 57f
5:24pm 20 22 mph 1014.3mb 52f 57f
5:18pm 20 22 mph 1014.4mb 52f 57f
5:12pm 18 21 mph 1014.4mb 52f 57f
5:06pm 17 21 mph 1014.3mb 52f 57f
5:00pm 17 21 mph 1014.4mb 52f 57f
4:54pm 18 22 mph 1014.5mb 52f 57f
4:48pm 17 21 mph 1014.6mb 51f 56f
4:42pm 17 21 mph 1014.7mb 51f 57f
4:36pm 20 23 mph 1014.8mb 51f 57f
4:30pm 18 22 mph 1014.9mb 50f 57f
4:24pm 20 22 mph 1014.9mb 50f 58f
4:18pm 21 23 mph 1015.1mb 50f 58f
4:12pm 20 23 mph 1015mb 49f 58f
4:06pm 21 23 mph 1015.1mb 49f 59f
4:00pm 20 23 mph 1015.1mb 49f 59f
3:54pm 20 23 mph 1015.1mb 49f 60f
3:48pm 18 22 mph 1015.2mb 49f 59f
3:42pm 18 22 mph 1015.3mb 49f 59f
3:36pm 20 23 mph 1015.3mb 49f 59f
3:30pm 18 22 mph 1015.4mb 49f 60f
3:24pm 20 25 mph 1015.5mb 49f 59f
3:18pm 23 25 mph 1015.6mb 49f 60f
3:12pm 22 25 mph 1015.7mb 49f 60f
3:06pm 21 24 mph 1015.8mb 49f 59f
3:00pm 21 24 mph 1015.8mb 49f 58f
2:54pm 22 25 mph 1016mb 49f 58f
2:48pm 21 24 mph 1016mb 48f 57f
2:42pm 20 23 mph 1016.1mb 48f 57f
2:36pm 20 23 mph 1016.1mb 48f 57f
2:30pm 20 24 mph 1016.1mb 48f 57f
2:24pm 20 23 mph 1016.3mb 48f 57f
2:18pm 20 24 mph 1016.2mb 48f 57f
2:12pm 18 22 mph 1016.3mb 48f 57f
2:06pm 16 20 mph 1016.2mb 48f 57f
2:00pm 18 22 mph 1016.3mb 48f 58f
1:54pm 17 22 mph 1016.4mb 47f 58f
1:48pm 18 21 mph 1016.4mb 47f 59f
1:42pm 20 22 mph 1016.4mb 47f 58f
1:36pm 18 22 mph 1016.4mb 47f 57f
1:30pm 18 22 mph 1016.5mb 47f 57f
1:24pm 17 21 mph 1016.4mb 47f 56f
1:18pm 18 23 mph 1016.5mb 47f 57f
1:12pm 18 22 mph 1016.5mb 47f 56f
1:06pm 17 22 mph 1016.6mb 46f 57f
1:00pm 17 22 mph 1016.7mb 46f 57f
12:54pm 17 21 mph 1016.8mb 46f 56f
12:48pm 15 21 mph 1016.9mb 46f 56f
12:42pm 17 21 mph 1017mb 46f 56f
12:36pm 16 21 mph 1017mb 46f 57f
12:30pm 18 21 mph 1017.2mb 46f 58f
12:24pm 17 21 mph 1017.3mb 46f 57f
12:18pm 18 22 mph 1017.4mb 46f 57f
12:12pm 15 22 mph 1017.6mb 46f 57f
12:06pm 20 23 mph 1017.7mb 46f 57f
12:00pm 16 20 mph 1017.6mb 46f 57f
11:54am 16 20 mph 1017.7mb 46f 57f
11:48am 17 21 mph 1017.6mb 46f 59f
11:42am 16 22 mph 1017.6mb 46f 60f
11:36am 17 21 mph 1017.5mb 46f 58f
11:30am 18 21 mph 1017.6mb 46f 58f
11:24am 18 20 mph 1017.7mb 46f 58f
11:18am 17 20 mph 1017.8mb 46f 58f
11:12am 17 20 mph 1017.8mb 46f 58f
11:06am 13 15 mph 1017.8mb 46f 58f
11:00am 14 16 mph 1017.8mb 46f 58f
10:54am 13 14 mph 1017.9mb 46f 57f
10:48am 11 15 mph 1017.8mb 46f 57f
10:42am 13 15 mph 1018mb 45f 57f
10:36am 13 15 mph 1018.1mb 45f 58f
10:30am 13 15 mph 1018mb 45f 60f
10:24am 10 13 mph 1018.1mb 45f 58f
10:18am 9 14 mph 1018.1mb 45f 57f
10:12am 10 14 mph 1018.1mb 45f 57f
10:06am 7 9 mph 1018.2mb 45f 58f
10:00am 8 10 mph 1018.2mb 45f 58f
9:54am 10 11 mph 1018.2mb 44f 57f
9:48am 9 10 mph 1018.4mb 44f 59f
9:42am 7 9 mph 1018.5mb 44f 58f
9:36am 8 9 mph 1018.5mb 44f 58f
9:30am 8 10 mph 1018.6mb 44f 60f
9:24am 9 10 mph 1018.7mb 44f 61f
9:18am 6 7 mph 1018.7mb 44f 64f
9:12am 6 8 mph 1018.7mb 44f 64f
9:06am 3 7 mph 1018.7mb 44f 67f
9:00am 6 10 mph 1018.7mb 45f 72f
8:54am 7 9 mph 1018.8mb 46f 71f
8:48am 6 9 mph 1018.8mb 46f 71f
8:42am 7 10 mph 1018.8mb 46f 70f
8:36am 6 8 mph 1018.9mb 48f 71f
8:30am 5 8 mph 1018.9mb 48f 70f
8:24am 7 10 mph 1018.9mb 48f 69f
8:18am 7 10 mph 1019mb 48f 69f
8:12am 7 10 mph 1019.1mb 48f 68f
8:06am 8 10 mph 1019.1mb 48f 67f
8:00am 7 10 mph 1019.1mb 48f 67f
7:54am 7 10 mph 1019.2mb 48f 66f
7:48am 6 9 mph 1019.2mb 48f 66f
7:42am 6 8 mph 1019.2mb 48f 65f
7:36am 3 8 mph 1019.3mb 48f 65f
7:30am 5 7 mph 1019.3mb 48f 64f
7:24am 7 8 mph 1019.2mb 48f 63f
7:18am 6 9 mph 1019.3mb 48f 63f
7:12am 6 8 mph 1019.2mb 48f 62f
7:06am 5 9 mph 1019.3mb 48f 62f
7:00am 6 10 mph 1019.3mb 48f 62f
6:54am 5 8 mph 1019.3mb 48f 61f
6:48am 6 9 mph 1019.3mb 47f 61f
6:42am 5 8 mph 1019.3mb 47f 60f
6:36am 5 8 mph 1019.2mb 47f 60f
6:30am 5 9 mph 1019.2mb 47f 59f
6:24am 6 9 mph 1019.1mb 47f 58f
6:18am 6 8 mph 1019.1mb 47f 58f
6:12am 6 7 mph 1019.1mb 47f 58f
6:06am 6 8 mph 1019.1mb 47f 58f
6:00am 6 8 mph 1019.1mb 47f 57f
5:54am 6 9 mph 1019.1mb 47f 57f
5:48am 6 9 mph 1019.1mb 47f 57f
5:42am 6 9 mph 1019.1mb 47f 57f
5:36am 6 9 mph 1019.1mb 47f 57f
5:30am 6 10 mph 1019.1mb 47f 56f
5:24am 7 10 mph 1019.1mb 47f 56f
5:18am 7 10 mph 1019.2mb 47f 56f
5:12am 8 10 mph 1019.2mb 47f 56f
5:06am 7 10 mph 1019.2mb 47f 56f
5:00am 9 11 mph 1019.1mb 47f 56f
4:54am 9 13 mph 1019.1mb 47f 56f
4:48am 8 10 mph 1019.1mb 47f 56f
4:42am 9 10 mph 1019.1mb 47f 56f
4:36am 9 11 mph 1019.2mb 47f 56f
4:30am 9 13 mph 1019.2mb 47f 56f
4:24am 9 11 mph 1019.2mb 47f 56f
4:18am 8 11 mph 1019.2mb 47f 56f
4:12am 9 11 mph 1019.2mb 47f 57f
4:06am 8 10 mph 1019.2mb 47f 57f
4:00am 8 11 mph 1019.2mb 47f 57f
3:54am 8 11 mph 1019.2mb 47f 57f
3:48am 9 11 mph 1019.2mb 47f 58f
3:42am 8 10 mph 1019.2mb 47f 58f
3:36am 8 10 mph 1019.2mb 46f 58f
3:30am 8 10 mph 1019.2mb 46f -
3:24am 8 11 mph 1019.3mb 46f -
3:18am 7 11 mph 1019.4mb 46f 59f
3:12am 8 11 mph 1019.4mb 46f 59f
3:06am 7 13 mph 1019.4mb 46f 59f
3:00am 7 14 mph 1019.5mb 46f 59f
2:54am 8 14 mph 1019.5mb 46f 60f
2:48am 10 15 mph 1019.5mb 46f 60f
2:42am 8 11 mph 1019.5mb 46f 60f
2:36am 8 14 mph 1019.6mb 45f 60f
2:30am 8 14 mph 1019.7mb 45f 60f
2:24am 8 13 mph 1019.7mb 46f 60f
2:18am 9 14 mph 1019.7mb 46f 60f
2:12am 9 14 mph 1019.8mb 45f 60f
2:06am 8 14 mph 1019.8mb 45f 60f
2:00am 8 14 mph 1019.9mb 45f 60f
1:54am 8 14 mph 1019.9mb 45f 60f
1:48am  -  mph 1019.9mb 45f 60f
1:42am  -  mph 1019.9mb 45f 60f
1:36am  -  mph 1019.9mb 45f 60f
1:30am 8 14 mph 1020mb 45f 60f
1:24am 9 15 mph 1020.1mb 45f 60f
1:18am 8 15 mph 1020.1mb 45f 60f
1:12am 8 14 mph 1020.1mb 45f 60f
1:06am 9 16 mph 1020.1mb 45f 60f
1:00am 10 16 mph 1020.1mb 45f 61f
12:54am 10 15 mph 1020.1mb 45f 61f
12:48am 8 15 mph 1020.1mb 45f 61f
12:42am 8 14 mph 1020mb 45f 61f
12:36am 10 16 mph 1020mb 45f 61f
12:30am 8 14 mph 1020mb 45f 61f
12:24am 9 14 mph 1020mb 45f 61f
12:18am 9 15 mph 1020mb 45f 61f
12:12am 9 16 mph 1020mb 45f 61f
12:06am 9 15 mph 1020mb 45f 61f
12:00am 8 15 mph 1020mb 44f 61f
Fri 05/20 11:54pm 8 14 mph 1020mb 44f 61f
11:48pm  -  mph 1020mb 44f 61f
11:42pm  -  mph 1019.9mb 44f 61f
11:36pm  -  mph 1020mb 44f 60f
11:30pm 3 5 mph 1020mb 44f 58f
11:24pm 3 5 mph 1020mb 45f 57f
11:18pm 2 6 mph 1020mb 45f 57f
11:12pm 1 3 mph 1020mb 45f 56f
11:06pm 1 2 mph 1019.9mb 44f 55f
11:00pm  -  mph - 45f 53f
10:54pm  -  mph - 45f 51f
10:48pm 1 2 mph - - -
10:42pm 1 2 mph - - -
10:36pm 1 2 mph - - -
10:30pm  -  mph - 45f -
10:24pm  -  mph - 45f -
10:18pm  -  mph 1020mb 45f 52f
10:12pm  -  mph 1020.1mb 45f 53f
10:06pm  -  mph 1020.1mb 45f 54f
10:00pm  -  mph 1020mb 45f 57f
9:54pm  -  mph 1020mb 45f 57f
9:48pm 3
mph
1020mb - -
9:42pm 1 2 mph 1020mb - -
9:36pm 1
mph
1020mb - -
9:30pm  -  1 mph 1019.9mb - -
9:24pm  -  2 mph 1019.8mb - -
9:18pm  -  3 mph - - 56f
9:12pm 3
mph
- - 57f
9:06pm 2
mph
- - 57f
9:00pm  -  mph 1019.7mb 45f 57f
8:54pm  -  mph 1019.6mb 46f 57f
8:48pm 1 2 mph - - -
8:42pm  -  2 mph - - -
8:36pm 1 2 mph - - -
8:30pm  -  mph 1019.5mb 47f -
8:24pm  -  mph 1019.6mb 48f -
8:18pm 2 3 mph 1019.6mb 48f 58f
8:12pm 2
mph
1019.7mb 49f 59f
8:06pm 1 5 mph 1019.7mb 50f 60f
8:00pm  -  mph 1019.7mb 51f 60f
7:54pm  -  mph 1019.7mb 51f 60f
7:48pm 6
mph
1019.8mb - -
7:42pm 5 8 mph 1019.8mb - -
7:36pm 7 8 mph 1019.8mb - -
7:30pm  -  mph - 52f -
7:24pm  -  mph - 52f -
7:18pm  -  mph 1019.8mb 52f 62f
7:12pm  -  mph 1019.7mb 52f 61f
7:06pm  -  mph 1019.7mb 52f 63f
7:00pm  -  mph 1019.6mb 52f -
6:54pm  -  mph 1019.6mb 52f -
6:48pm  -  mph 1019.6mb 52f -
6:42pm  -  mph 1019.6mb 52f -
6:36pm  -  mph 1019.7mb 52f -
6:30pm  -  mph 1019.7mb 52f -
6:24pm  -  mph 1019.7mb 52f -
6:18pm  -  mph 1019.7mb 52f -
6:12pm  -  mph 1019.8mb 52f -
6:06pm  -  mph 1019.8mb 52f -
6:00pm  -  mph 1019.9mb 51f -
5:54pm  -  mph 1019.8mb 51f -
5:48pm 18 21 mph - 51f -
5:42pm 18 21 mph - 51f -
5:36pm 18 21 mph - 51f -
5:30pm 18 22 mph 1019.7mb 51f 61f
5:24pm 21 28 mph 1019.7mb 51f 61f
5:18pm 21 24 mph 1019.7mb 51f 61f
5:12pm 18 23 mph 1019.7mb 51f 61f
5:06pm 21 23 mph 1019.8mb 51f 61f
5:00pm 20 22 mph 1019.8mb 50f 60f
4:54pm 17 20 mph 1019.8mb 50f 61f
4:48pm 18 21 mph 1019.8mb 50f 61f
4:42pm 20 24 mph 1019.8mb 50f 62f
4:36pm 21 23 mph 1019.8mb 50f 63f
4:30pm 17 20 mph 1019.8mb 50f 63f
4:24pm 17 23 mph 1019.8mb 51f 61f
4:18pm 17 21 mph 1019.8mb 51f 62f
4:12pm 21 23 mph 1019.8mb 51f 60f
4:06pm 20 23 mph 1019.8mb 51f 62f
4:00pm 17 21 mph 1019.9mb 51f 62f
3:54pm 20 23 mph 1020mb 50f 61f
3:48pm 20 23 mph 1020mb 50f 62f
3:42pm 17 21 mph 1020mb 49f 60f
3:36pm 16 21 mph 1020mb 49f 60f
3:30pm 16 21 mph 1020mb 49f 60f
3:24pm 17 21 mph 1020.1mb 49f 60f
3:18pm 17 21 mph 1020.1mb 49f 60f
3:12pm 17 21 mph 1020.1mb 48f 60f
3:06pm 17 20 mph 1020.2mb 48f 61f
3:00pm 17 20 mph 1020.2mb 49f 61f
2:54pm 16 20 mph 1020.3mb 49f 62f
2:48pm 18 21 mph 1020.5mb 49f 61f
2:42pm 18 22 mph 1020.5mb 49f 60f
2:36pm 17 22 mph 1020.5mb 49f 60f
2:30pm 17 20 mph 1020.6mb 48f 59f
2:24pm 15 20 mph 1020.6mb 48f 59f
2:18pm 17 21 mph 1020.7mb 48f 59f
2:12pm 16 20 mph 1020.8mb 48f 59f
2:06pm 17 18 mph 1020.9mb 47f 60f